sensor_id;sensor_type;location;lat;lon;timestamp;temperature;humidity
16958;DHT22;8595;52.542;11.974;2022-11-20T00:00:38;0.70;99.90
16958;DHT22;8595;52.542;11.974;2022-11-20T00:03:06;0.70;99.90
16958;DHT22;8595;52.542;11.974;2022-11-20T00:05:33;0.60;99.90
16958;DHT22;8595;52.542;11.974;2022-11-20T00:08:00;0.70;99.90
16958;DHT22;8595;52.542;11.974;2022-11-20T00:10:27;0.60;99.90
16958;DHT22;8595;52.542;11.974;2022-11-20T00:12:53;0.60;99.90
16958;DHT22;8595;52.542;11.974;2022-11-20T00:15:20;0.60;99.90
16958;DHT22;8595;52.542;11.974;2022-11-20T00:17:47;0.70;99.90
16958;DHT22;8595;52.542;11.974;2022-11-20T00:20:15;0.70;99.90
16958;DHT22;8595;52.542;11.974;2022-11-20T00:22:42;0.70;99.90
16958;DHT22;8595;52.542;11.974;2022-11-20T00:25:09;0.70;99.90
16958;DHT22;8595;52.542;11.974;2022-11-20T00:27:35;0.70;99.90
16958;DHT22;8595;52.542;11.974;2022-11-20T00:30:03;0.70;99.90
16958;DHT22;8595;52.542;11.974;2022-11-20T00:32:30;0.70;99.90
16958;DHT22;8595;52.542;11.974;2022-11-20T00:34:57;0.70;99.90
16958;DHT22;8595;52.542;11.974;2022-11-20T00:37:25;0.70;99.90
16958;DHT22;8595;52.542;11.974;2022-11-20T00:39:51;0.70;99.90
16958;DHT22;8595;52.542;11.974;2022-11-20T00:42:18;0.70;99.90
16958;DHT22;8595;52.542;11.974;2022-11-20T00:44:45;0.60;99.90
16958;DHT22;8595;52.542;11.974;2022-11-20T00:47:12;0.70;99.90
16958;DHT22;8595;52.542;11.974;2022-11-20T00:49:38;0.80;99.90
16958;DHT22;8595;52.542;11.974;2022-11-20T00:52:05;0.80;99.90
16958;DHT22;8595;52.542;11.974;2022-11-20T00:54:33;0.80;99.90
16958;DHT22;8595;52.542;11.974;2022-11-20T00:57:00;0.90;99.90
16958;DHT22;8595;52.542;11.974;2022-11-20T00:59:27;0.90;99.90
16958;DHT22;8595;52.542;11.974;2022-11-20T01:01:54;0.90;99.90
16958;DHT22;8595;52.542;11.974;2022-11-20T01:04:20;0.90;99.90
16958;DHT22;8595;52.542;11.974;2022-11-20T01:06:47;0.80;99.90
16958;DHT22;8595;52.542;11.974;2022-11-20T01:09:14;0.80;99.90
16958;DHT22;8595;52.542;11.974;2022-11-20T01:11:44;0.80;99.90
16958;DHT22;8595;52.542;11.974;2022-11-20T01:14:13;0.90;99.90
16958;DHT22;8595;52.542;11.974;2022-11-20T01:16:41;0.80;99.90
16958;DHT22;8595;52.542;11.974;2022-11-20T01:19:12;0.90;99.90
16958;DHT22;8595;52.542;11.974;2022-11-20T01:21:40;1.00;99.90
16958;DHT22;8595;52.542;11.974;2022-11-20T01:24:11;1.00;99.90
16958;DHT22;8595;52.542;11.974;2022-11-20T01:26:39;1.00;99.90
16958;DHT22;8595;52.542;11.974;2022-11-20T01:29:12;1.00;99.90
16958;DHT22;8595;52.542;11.974;2022-11-20T01:31:39;0.90;99.90
16958;DHT22;8595;52.542;11.974;2022-11-20T01:34:09;0.90;99.90
16958;DHT22;8595;52.542;11.974;2022-11-20T01:36:37;0.90;99.90
16958;DHT22;8595;52.542;11.974;2022-11-20T01:39:05;0.80;99.90
16958;DHT22;8595;52.542;11.974;2022-11-20T01:41:34;0.90;99.90
16958;DHT22;8595;52.542;11.974;2022-11-20T01:44:22;0.80;99.90
16958;DHT22;8595;52.542;11.974;2022-11-20T01:46:54;0.90;99.90
16958;DHT22;8595;52.542;11.974;2022-11-20T01:49:25;0.90;99.90
16958;DHT22;8595;52.542;11.974;2022-11-20T01:51:57;0.80;99.90
16958;DHT22;8595;52.542;11.974;2022-11-20T01:54:32;0.90;99.90
16958;DHT22;8595;52.542;11.974;2022-11-20T01:57:04;0.90;99.90
16958;DHT22;8595;52.542;11.974;2022-11-20T01:59:37;0.90;99.90
16958;DHT22;8595;52.542;11.974;2022-11-20T02:02:05;0.80;99.90
16958;DHT22;8595;52.542;11.974;2022-11-20T02:04:32;0.80;99.90
16958;DHT22;8595;52.542;11.974;2022-11-20T02:07:00;0.80;99.90
16958;DHT22;8595;52.542;11.974;2022-11-20T02:09:28;0.90;99.90
16958;DHT22;8595;52.542;11.974;2022-11-20T02:11:56;0.90;99.90
16958;DHT22;8595;52.542;11.974;2022-11-20T02:14:23;0.80;99.90
16958;DHT22;8595;52.542;11.974;2022-11-20T02:16:51;0.80;99.90
16958;DHT22;8595;52.542;11.974;2022-11-20T02:19:23;0.80;99.90
16958;DHT22;8595;52.542;11.974;2022-11-20T02:21:59;0.80;99.90
16958;DHT22;8595;52.542;11.974;2022-11-20T02:24:29;0.80;99.90
16958;DHT22;8595;52.542;11.974;2022-11-20T02:26:59;0.90;99.90
16958;DHT22;8595;52.542;11.974;2022-11-20T02:29:29;0.80;99.90
16958;DHT22;8595;52.542;11.974;2022-11-20T02:31:59;0.70;99.90
16958;DHT22;8595;52.542;11.974;2022-11-20T02:34:27;0.70;99.90
16958;DHT22;8595;52.542;11.974;2022-11-20T02:36:54;0.60;99.90
16958;DHT22;8595;52.542;11.974;2022-11-20T02:39:23;0.60;99.90
16958;DHT22;8595;52.542;11.974;2022-11-20T02:41:53;0.60;99.90
16958;DHT22;8595;52.542;11.974;2022-11-20T02:44:22;0.70;99.90
16958;DHT22;8595;52.542;11.974;2022-11-20T02:46:48;0.70;99.90
16958;DHT22;8595;52.542;11.974;2022-11-20T02:49:15;0.70;99.90
16958;DHT22;8595;52.542;11.974;2022-11-20T02:51:43;0.70;99.90
16958;DHT22;8595;52.542;11.974;2022-11-20T02:54:09;0.70;99.90
16958;DHT22;8595;52.542;11.974;2022-11-20T02:56:37;0.80;99.90
16958;DHT22;8595;52.542;11.974;2022-11-20T02:59:06;0.80;99.90
16958;DHT22;8595;52.542;11.974;2022-11-20T03:01:32;0.70;99.90
16958;DHT22;8595;52.542;11.974;2022-11-20T03:03:59;0.60;99.90
16958;DHT22;8595;52.542;11.974;2022-11-20T03:06:26;0.70;99.90
16958;DHT22;8595;52.542;11.974;2022-11-20T03:08:53;0.60;99.90
16958;DHT22;8595;52.542;11.974;2022-11-20T03:11:20;0.70;99.90
16958;DHT22;8595;52.542;11.974;2022-11-20T03:13:47;0.60;99.90
16958;DHT22;8595;52.542;11.974;2022-11-20T03:16:17;0.70;99.90
16958;DHT22;8595;52.542;11.974;2022-11-20T03:18:44;0.70;99.90
16958;DHT22;8595;52.542;11.974;2022-11-20T03:21:12;0.70;99.90
16958;DHT22;8595;52.542;11.974;2022-11-20T03:23:39;0.80;99.90
16958;DHT22;8595;52.542;11.974;2022-11-20T03:26:12;0.80;99.90
16958;DHT22;8595;52.542;11.974;2022-11-20T03:28:39;0.90;99.90
16958;DHT22;8595;52.542;11.974;2022-11-20T03:31:08;0.90;99.90
16958;DHT22;8595;52.542;11.974;2022-11-20T03:33:37;0.80;99.90
16958;DHT22;8595;52.542;11.974;2022-11-20T03:36:06;0.80;99.90
16958;DHT22;8595;52.542;11.974;2022-11-20T03:38:34;0.80;99.90
16958;DHT22;8595;52.542;11.974;2022-11-20T03:41:01;0.90;99.90
16958;DHT22;8595;52.542;11.974;2022-11-20T03:43:28;0.80;99.90
16958;DHT22;8595;52.542;11.974;2022-11-20T03:45:55;0.80;99.90
16958;DHT22;8595;52.542;11.974;2022-11-20T03:48:22;0.90;99.90
16958;DHT22;8595;52.542;11.974;2022-11-20T03:50:50;0.90;99.90
16958;DHT22;8595;52.542;11.974;2022-11-20T03:53:17;0.90;99.90
16958;DHT22;8595;52.542;11.974;2022-11-20T03:55:45;0.90;99.90
16958;DHT22;8595;52.542;11.974;2022-11-20T03:58:16;0.90;99.90
16958;DHT22;8595;52.542;11.974;2022-11-20T04:00:43;0.90;99.90
16958;DHT22;8595;52.542;11.974;2022-11-20T04:03:10;0.90;99.90
16958;DHT22;8595;52.542;11.974;2022-11-20T04:05:37;0.90;99.90
16958;DHT22;8595;52.542;11.974;2022-11-20T04:08:05;0.90;99.90
16958;DHT22;8595;52.542;11.974;2022-11-20T04:10:32;0.90;99.90
16958;DHT22;8595;52.542;11.974;2022-11-20T04:12:58;0.80;99.90
16958;DHT22;8595;52.542;11.974;2022-11-20T04:15:25;0.90;99.90
16958;DHT22;8595;52.542;11.974;2022-11-20T04:17:53;1.00;99.90
16958;DHT22;8595;52.542;11.974;2022-11-20T04:20:20;0.90;99.90
16958;DHT22;8595;52.542;11.974;2022-11-20T04:22:47;1.00;99.90
16958;DHT22;8595;52.542;11.974;2022-11-20T04:25:15;1.00;99.90
16958;DHT22;8595;52.542;11.974;2022-11-20T04:27:42;1.00;99.90
16958;DHT22;8595;52.542;11.974;2022-11-20T04:30:09;0.90;99.90
16958;DHT22;8595;52.542;11.974;2022-11-20T04:32:36;1.00;99.90
16958;DHT22;8595;52.542;11.974;2022-11-20T04:35:04;1.00;99.90
16958;DHT22;8595;52.542;11.974;2022-11-20T04:37:30;1.10;99.90
16958;DHT22;8595;52.542;11.974;2022-11-20T04:39:57;1.10;99.90
16958;DHT22;8595;52.542;11.974;2022-11-20T04:42:25;1.10;99.90
16958;DHT22;8595;52.542;11.974;2022-11-20T04:44:55;1.10;99.90
16958;DHT22;8595;52.542;11.974;2022-11-20T04:47:23;1.20;99.90
16958;DHT22;8595;52.542;11.974;2022-11-20T04:49:49;1.20;99.90
16958;DHT22;8595;52.542;11.974;2022-11-20T04:52:16;1.30;99.90
16958;DHT22;8595;52.542;11.974;2022-11-20T04:54:43;1.20;99.90
16958;DHT22;8595;52.542;11.974;2022-11-20T04:57:09;1.20;99.90
16958;DHT22;8595;52.542;11.974;2022-11-20T04:59:38;1.20;99.90
16958;DHT22;8595;52.542;11.974;2022-11-20T05:02:04;1.20;99.90
16958;DHT22;8595;52.542;11.974;2022-11-20T05:04:31;1.20;99.90
16958;DHT22;8595;52.542;11.974;2022-11-20T05:06:58;1.10;99.90
16958;DHT22;8595;52.542;11.974;2022-11-20T05:09:25;1.20;99.90
16958;DHT22;8595;52.542;11.974;2022-11-20T05:11:51;1.20;99.90
16958;DHT22;8595;52.542;11.974;2022-11-20T05:14:18;1.20;99.90
16958;DHT22;8595;52.542;11.974;2022-11-20T05:16:46;1.30;99.90
16958;DHT22;8595;52.542;11.974;2022-11-20T05:19:13;1.20;99.90
16958;DHT22;8595;52.542;11.974;2022-11-20T05:21:39;1.20;99.90
16958;DHT22;8595;52.542;11.974;2022-11-20T05:24:06;1.20;99.90
16958;DHT22;8595;52.542;11.974;2022-11-20T05:26:33;1.20;99.90
16958;DHT22;8595;52.542;11.974;2022-11-20T05:29:00;1.10;99.90
16958;DHT22;8595;52.542;11.974;2022-11-20T05:31:27;1.00;99.90
16958;DHT22;8595;52.542;11.974;2022-11-20T05:33:55;1.10;99.90
16958;DHT22;8595;52.542;11.974;2022-11-20T05:36:22;1.10;99.90
16958;DHT22;8595;52.542;11.974;2022-11-20T05:38:49;1.10;99.90
16958;DHT22;8595;52.542;11.974;2022-11-20T05:41:17;1.10;99.90
16958;DHT22;8595;52.542;11.974;2022-11-20T05:43:45;1.10;99.90
16958;DHT22;8595;52.542;11.974;2022-11-20T05:46:14;1.10;99.90
16958;DHT22;8595;52.542;11.974;2022-11-20T05:48:42;0.90;99.90
16958;DHT22;8595;52.542;11.974;2022-11-20T05:51:11;1.00;99.90
16958;DHT22;8595;52.542;11.974;2022-11-20T05:53:38;1.00;99.90
16958;DHT22;8595;52.542;11.974;2022-11-20T05:56:07;0.90;99.90
16958;DHT22;8595;52.542;11.974;2022-11-20T05:58:36;0.90;99.90
16958;DHT22;8595;52.542;11.974;2022-11-20T06:01:05;0.90;99.90
16958;DHT22;8595;52.542;11.974;2022-11-20T06:03:31;1.00;99.90
16958;DHT22;8595;52.542;11.974;2022-11-20T06:05:58;0.90;99.90
16958;DHT22;8595;52.542;11.974;2022-11-20T06:08:27;0.90;99.90
16958;DHT22;8595;52.542;11.974;2022-11-20T06:10:53;0.90;99.90
16958;DHT22;8595;52.542;11.974;2022-11-20T06:13:20;0.90;99.90
16958;DHT22;8595;52.542;11.974;2022-11-20T06:15:48;0.80;99.90
16958;DHT22;8595;52.542;11.974;2022-11-20T06:18:15;0.80;99.90
16958;DHT22;8595;52.542;11.974;2022-11-20T06:20:42;0.80;99.90
16958;DHT22;8595;52.542;11.974;2022-11-20T06:23:09;0.80;99.90
16958;DHT22;8595;52.542;11.974;2022-11-20T06:25:38;0.80;99.90
16958;DHT22;8595;52.542;11.974;2022-11-20T06:28:05;0.80;99.90
16958;DHT22;8595;52.542;11.974;2022-11-20T06:30:32;0.80;99.90
16958;DHT22;8595;52.542;11.974;2022-11-20T06:32:59;0.70;99.90
16958;DHT22;8595;52.542;11.974;2022-11-20T06:35:26;0.70;99.90
16958;DHT22;8595;52.542;11.974;2022-11-20T06:37:52;0.70;99.90
16958;DHT22;8595;52.542;11.974;2022-11-20T06:40:19;0.70;99.90
16958;DHT22;8595;52.542;11.974;2022-11-20T06:42:47;0.60;99.90
16958;DHT22;8595;52.542;11.974;2022-11-20T06:45:14;0.70;99.90
16958;DHT22;8595;52.542;11.974;2022-11-20T06:47:41;0.70;99.90
16958;DHT22;8595;52.542;11.974;2022-11-20T06:50:08;0.70;99.90
16958;DHT22;8595;52.542;11.974;2022-11-20T06:52:35;0.80;99.90
16958;DHT22;8595;52.542;11.974;2022-11-20T06:55:02;0.70;99.90
16958;DHT22;8595;52.542;11.974;2022-11-20T06:57:29;0.80;99.90
16958;DHT22;8595;52.542;11.974;2022-11-20T06:59:58;0.70;99.90
16958;DHT22;8595;52.542;11.974;2022-11-20T07:02:24;0.80;99.90
16958;DHT22;8595;52.542;11.974;2022-11-20T07:04:51;0.80;99.90
16958;DHT22;8595;52.542;11.974;2022-11-20T07:07:18;0.80;99.90
16958;DHT22;8595;52.542;11.974;2022-11-20T07:09:45;0.70;99.90
16958;DHT22;8595;52.542;11.974;2022-11-20T07:12:11;0.70;99.90
16958;DHT22;8595;52.542;11.974;2022-11-20T07:14:38;0.70;99.90
16958;DHT22;8595;52.542;11.974;2022-11-20T07:17:06;0.70;99.90
16958;DHT22;8595;52.542;11.974;2022-11-20T07:19:33;0.70;99.90
16958;DHT22;8595;52.542;11.974;2022-11-20T07:22:00;0.70;99.90
16958;DHT22;8595;52.542;11.974;2022-11-20T07:24:27;0.70;99.90
16958;DHT22;8595;52.542;11.974;2022-11-20T07:26:53;0.70;99.90
16958;DHT22;8595;52.542;11.974;2022-11-20T07:29:20;0.70;99.90
16958;DHT22;8595;52.542;11.974;2022-11-20T07:31:47;0.80;99.90
16958;DHT22;8595;52.542;11.974;2022-11-20T07:34:15;0.80;99.90
16958;DHT22;8595;52.542;11.974;2022-11-20T07:36:41;0.70;99.90
16958;DHT22;8595;52.542;11.974;2022-11-20T07:39:09;0.80;99.90
16958;DHT22;8595;52.542;11.974;2022-11-20T07:41:35;0.80;99.90
16958;DHT22;8595;52.542;11.974;2022-11-20T07:44:02;0.90;99.90
16958;DHT22;8595;52.542;11.974;2022-11-20T07:46:29;0.90;99.90
16958;DHT22;8595;52.542;11.974;2022-11-20T07:48:56;0.80;99.90
16958;DHT22;8595;52.542;11.974;2022-11-20T07:51:24;0.90;99.90
16958;DHT22;8595;52.542;11.974;2022-11-20T07:53:52;0.80;99.90
16958;DHT22;8595;52.542;11.974;2022-11-20T07:56:19;0.90;99.90
16958;DHT22;8595;52.542;11.974;2022-11-20T07:58:46;0.90;99.90
16958;DHT22;8595;52.542;11.974;2022-11-20T08:01:13;0.90;99.90
16958;DHT22;8595;52.542;11.974;2022-11-20T08:03:40;0.90;99.90
16958;DHT22;8595;52.542;11.974;2022-11-20T08:06:07;0.90;99.90
16958;DHT22;8595;52.542;11.974;2022-11-20T08:08:36;1.00;99.90
16958;DHT22;8595;52.542;11.974;2022-11-20T08:11:04;1.00;99.90
16958;DHT22;8595;52.542;11.974;2022-11-20T08:13:49;1.00;99.90
16958;DHT22;8595;52.542;11.974;2022-11-20T08:16:49;1.00;99.90
16958;DHT22;8595;52.542;11.974;2022-11-20T08:19:17;1.00;99.90
16958;DHT22;8595;52.542;11.974;2022-11-20T08:21:44;1.10;99.90
16958;DHT22;8595;52.542;11.974;2022-11-20T08:24:12;1.10;99.90
16958;DHT22;8595;52.542;11.974;2022-11-20T08:26:40;1.10;99.90
16958;DHT22;8595;52.542;11.974;2022-11-20T08:29:07;1.20;99.90
16958;DHT22;8595;52.542;11.974;2022-11-20T08:31:34;1.20;99.90
16958;DHT22;8595;52.542;11.974;2022-11-20T08:34:01;1.10;99.90
16958;DHT22;8595;52.542;11.974;2022-11-20T08:36:28;1.20;99.90
16958;DHT22;8595;52.542;11.974;2022-11-20T08:38:55;1.30;99.90
16958;DHT22;8595;52.542;11.974;2022-11-20T08:41:23;1.30;99.90
16958;DHT22;8595;52.542;11.974;2022-11-20T08:43:53;1.40;99.90
16958;DHT22;8595;52.542;11.974;2022-11-20T08:46:20;1.40;99.90
16958;DHT22;8595;52.542;11.974;2022-11-20T08:48:47;1.40;99.90
16958;DHT22;8595;52.542;11.974;2022-11-20T08:51:14;1.40;99.90
16958;DHT22;8595;52.542;11.974;2022-11-20T08:53:41;1.50;99.90
16958;DHT22;8595;52.542;11.974;2022-11-20T08:56:08;1.60;99.90
16958;DHT22;8595;52.542;11.974;2022-11-20T08:58:37;1.60;99.90
16958;DHT22;8595;52.542;11.974;2022-11-20T09:01:04;1.50;99.90
16958;DHT22;8595;52.542;11.974;2022-11-20T09:03:31;1.50;99.90
16958;DHT22;8595;52.542;11.974;2022-11-20T09:05:59;1.60;99.90
16958;DHT22;8595;52.542;11.974;2022-11-20T09:08:27;1.60;99.90
16958;DHT22;8595;52.542;11.974;2022-11-20T09:10:55;1.60;99.90
16958;DHT22;8595;52.542;11.974;2022-11-20T09:13:23;1.60;99.90
16958;DHT22;8595;52.542;11.974;2022-11-20T09:15:54;1.80;99.90
16958;DHT22;8595;52.542;11.974;2022-11-20T09:18:21;1.80;99.90
16958;DHT22;8595;52.542;11.974;2022-11-20T09:20:48;1.80;99.90
16958;DHT22;8595;52.542;11.974;2022-11-20T09:23:15;1.90;99.90
16958;DHT22;8595;52.542;11.974;2022-11-20T09:25:43;1.90;99.90
16958;DHT22;8595;52.542;11.974;2022-11-20T09:28:11;1.90;99.90
16958;DHT22;8595;52.542;11.974;2022-11-20T09:30:41;2.00;99.90
16958;DHT22;8595;52.542;11.974;2022-11-20T09:33:10;1.90;99.90
16958;DHT22;8595;52.542;11.974;2022-11-20T09:35:36;2.00;99.90
16958;DHT22;8595;52.542;11.974;2022-11-20T09:38:08;2.00;99.90
16958;DHT22;8595;52.542;11.974;2022-11-20T09:40:39;2.10;99.90
16958;DHT22;8595;52.542;11.974;2022-11-20T09:43:11;2.00;99.90
16958;DHT22;8595;52.542;11.974;2022-11-20T09:45:54;2.10;99.90
16958;DHT22;8595;52.542;11.974;2022-11-20T09:48:52;2.00;99.90
16958;DHT22;8595;52.542;11.974;2022-11-20T09:51:31;2.00;99.90
16958;DHT22;8595;52.542;11.974;2022-11-20T09:54:08;2.00;99.90
16958;DHT22;8595;52.542;11.974;2022-11-20T09:56:42;2.10;99.90
16958;DHT22;8595;52.542;11.974;2022-11-20T09:59:19;1.90;99.90
16958;DHT22;8595;52.542;11.974;2022-11-20T10:01:48;1.80;99.90
16958;DHT22;8595;52.542;11.974;2022-11-20T10:04:18;1.80;99.90
16958;DHT22;8595;52.542;11.974;2022-11-20T10:06:51;1.90;99.90
16958;DHT22;8595;52.542;11.974;2022-11-20T10:09:22;1.90;99.90
16958;DHT22;8595;52.542;11.974;2022-11-20T10:11:59;1.90;99.90
16958;DHT22;8595;52.542;11.974;2022-11-20T10:14:38;1.90;99.90
16958;DHT22;8595;52.542;11.974;2022-11-20T10:17:15;1.80;99.90
16958;DHT22;8595;52.542;11.974;2022-11-20T10:19:59;1.80;99.90
16958;DHT22;8595;52.542;11.974;2022-11-20T10:22:39;1.70;99.90
16958;DHT22;8595;52.542;11.974;2022-11-20T10:25:14;1.80;99.90
16958;DHT22;8595;52.542;11.974;2022-11-20T10:28:12;1.80;99.90
16958;DHT22;8595;52.542;11.974;2022-11-20T10:30:43;1.90;99.90
16958;DHT22;8595;52.542;11.974;2022-11-20T10:33:15;1.80;99.90
16958;DHT22;8595;52.542;11.974;2022-11-20T10:35:45;1.80;99.90
16958;DHT22;8595;52.542;11.974;2022-11-20T10:38:19;1.80;99.90
16958;DHT22;8595;52.542;11.974;2022-11-20T10:40:50;1.60;99.90
16958;DHT22;8595;52.542;11.974;2022-11-20T10:43:21;1.60;99.90
16958;DHT22;8595;52.542;11.974;2022-11-20T10:45:55;1.70;99.90
16958;DHT22;8595;52.542;11.974;2022-11-20T10:48:26;1.80;99.90
16958;DHT22;8595;52.542;11.974;2022-11-20T10:51:03;1.80;99.90
16958;DHT22;8595;52.542;11.974;2022-11-20T10:53:57;1.70;99.90
16958;DHT22;8595;52.542;11.974;2022-11-20T10:56:31;1.80;99.90
16958;DHT22;8595;52.542;11.974;2022-11-20T10:59:10;1.90;99.90
16958;DHT22;8595;52.542;11.974;2022-11-20T11:01:40;1.90;99.90
16958;DHT22;8595;52.542;11.974;2022-11-20T11:04:23;1.70;99.90
16958;DHT22;8595;52.542;11.974;2022-11-20T11:06:56;1.70;99.90
16958;DHT22;8595;52.542;11.974;2022-11-20T11:09:30;1.80;99.90
16958;DHT22;8595;52.542;11.974;2022-11-20T11:11:59;1.80;99.90
16958;DHT22;8595;52.542;11.974;2022-11-20T11:14:25;1.80;99.90
16958;DHT22;8595;52.542;11.974;2022-11-20T11:16:54;1.90;99.90
16958;DHT22;8595;52.542;11.974;2022-11-20T11:19:22;2.00;99.90
16958;DHT22;8595;52.542;11.974;2022-11-20T11:21:52;2.00;99.90
16958;DHT22;8595;52.542;11.974;2022-11-20T11:24:21;2.10;99.90
16958;DHT22;8595;52.542;11.974;2022-11-20T11:26:55;2.00;99.90
16958;DHT22;8595;52.542;11.974;2022-11-20T11:29:22;2.10;99.90
16958;DHT22;8595;52.542;11.974;2022-11-20T11:32:04;2.00;99.90
16958;DHT22;8595;52.542;11.974;2022-11-20T11:34:31;2.10;99.90
16958;DHT22;8595;52.542;11.974;2022-11-20T11:37:00;2.00;99.90
16958;DHT22;8595;52.542;11.974;2022-11-20T11:39:29;2.10;99.90
16958;DHT22;8595;52.542;11.974;2022-11-20T11:41:57;2.10;99.90
16958;DHT22;8595;52.542;11.974;2022-11-20T11:44:27;2.10;99.90
16958;DHT22;8595;52.542;11.974;2022-11-20T11:47:21;2.30;99.90
16958;DHT22;8595;52.542;11.974;2022-11-20T11:49:48;2.40;99.90
16958;DHT22;8595;52.542;11.974;2022-11-20T11:52:18;2.40;99.90
16958;DHT22;8595;52.542;11.974;2022-11-20T11:54:50;2.70;99.90
16958;DHT22;8595;52.542;11.974;2022-11-20T11:57:26;2.80;99.90
16958;DHT22;8595;52.542;11.974;2022-11-20T12:00:00;2.80;99.90
16958;DHT22;8595;52.542;11.974;2022-11-20T12:02:34;2.70;99.90
16958;DHT22;8595;52.542;11.974;2022-11-20T12:05:09;2.70;99.90
16958;DHT22;8595;52.542;11.974;2022-11-20T12:07:43;2.70;99.90
16958;DHT22;8595;52.542;11.974;2022-11-20T12:10:16;2.70;99.90
16958;DHT22;8595;52.542;11.974;2022-11-20T12:12:46;2.70;99.90
16958;DHT22;8595;52.542;11.974;2022-11-20T12:15:24;2.80;99.90
16958;DHT22;8595;52.542;11.974;2022-11-20T12:17:51;2.90;99.90
16958;DHT22;8595;52.542;11.974;2022-11-20T12:20:20;2.90;99.90
16958;DHT22;8595;52.542;11.974;2022-11-20T12:22:56;3.00;99.90
16958;DHT22;8595;52.542;11.974;2022-11-20T12:25:27;3.10;99.90
16958;DHT22;8595;52.542;11.974;2022-11-20T12:28:23;3.10;99.90
16958;DHT22;8595;52.542;11.974;2022-11-20T12:31:07;3.20;99.90
16958;DHT22;8595;52.542;11.974;2022-11-20T12:33:47;3.20;99.90
16958;DHT22;8595;52.542;11.974;2022-11-20T12:36:25;3.20;99.90
16958;DHT22;8595;52.542;11.974;2022-11-20T12:39:05;3.20;99.90
16958;DHT22;8595;52.542;11.974;2022-11-20T12:41:49;3.20;99.90
16958;DHT22;8595;52.542;11.974;2022-11-20T12:44:46;3.10;99.90
16958;DHT22;8595;52.542;11.974;2022-11-20T12:47:57;3.20;99.90
16958;DHT22;8595;52.542;11.974;2022-11-20T12:50:35;3.20;99.90
16958;DHT22;8595;52.542;11.974;2022-11-20T12:53:05;3.00;99.90
16958;DHT22;8595;52.542;11.974;2022-11-20T12:55:45;2.90;99.90
16958;DHT22;8595;52.542;11.974;2022-11-20T12:58:20;2.90;99.90
16958;DHT22;8595;52.542;11.974;2022-11-20T13:00:54;2.80;99.90
16958;DHT22;8595;52.542;11.974;2022-11-20T13:03:38;2.70;99.90
16958;DHT22;8595;52.542;11.974;2022-11-20T13:06:13;2.60;99.90
16958;DHT22;8595;52.542;11.974;2022-11-20T13:08:45;2.70;99.90
16958;DHT22;8595;52.542;11.974;2022-11-20T13:11:20;2.70;99.90
16958;DHT22;8595;52.542;11.974;2022-11-20T13:14:04;2.70;99.90
16958;DHT22;8595;52.542;11.974;2022-11-20T13:16:40;2.70;99.90
16958;DHT22;8595;52.542;11.974;2022-11-20T13:19:11;2.70;99.90
16958;DHT22;8595;52.542;11.974;2022-11-20T13:21:41;3.10;99.90
16958;DHT22;8595;52.542;11.974;2022-11-20T13:24:22;3.00;99.90
16958;DHT22;8595;52.542;11.974;2022-11-20T13:27:04;3.00;99.90
16958;DHT22;8595;52.542;11.974;2022-11-20T13:29:32;2.90;99.90
16958;DHT22;8595;52.542;11.974;2022-11-20T13:32:04;2.70;99.90
16958;DHT22;8595;52.542;11.974;2022-11-20T13:34:33;2.50;99.90
16958;DHT22;8595;52.542;11.974;2022-11-20T13:37:00;2.40;99.90
16958;DHT22;8595;52.542;11.974;2022-11-20T13:39:31;2.30;99.90
16958;DHT22;8595;52.542;11.974;2022-11-20T13:42:01;2.40;99.90
16958;DHT22;8595;52.542;11.974;2022-11-20T13:44:33;2.40;99.90
16958;DHT22;8595;52.542;11.974;2022-11-20T13:47:00;2.40;99.90
16958;DHT22;8595;52.542;11.974;2022-11-20T13:49:34;2.40;99.90
16958;DHT22;8595;52.542;11.974;2022-11-20T13:52:30;2.40;99.90
16958;DHT22;8595;52.542;11.974;2022-11-20T13:55:10;2.30;99.90
16958;DHT22;8595;52.542;11.974;2022-11-20T13:57:57;2.40;99.90
16958;DHT22;8595;52.542;11.974;2022-11-20T14:00:26;2.40;99.90
16958;DHT22;8595;52.542;11.974;2022-11-20T14:03:01;2.50;99.90
16958;DHT22;8595;52.542;11.974;2022-11-20T14:05:31;2.50;99.90
16958;DHT22;8595;52.542;11.974;2022-11-20T14:08:00;2.40;99.90
16958;DHT22;8595;52.542;11.974;2022-11-20T14:10:30;2.40;99.90
16958;DHT22;8595;52.542;11.974;2022-11-20T14:12:58;2.50;99.90
16958;DHT22;8595;52.542;11.974;2022-11-20T14:15:35;2.40;99.90
16958;DHT22;8595;52.542;11.974;2022-11-20T14:18:12;2.40;99.90
16958;DHT22;8595;52.542;11.974;2022-11-20T14:20:39;2.50;99.90
16958;DHT22;8595;52.542;11.974;2022-11-20T14:23:09;2.40;99.90
16958;DHT22;8595;52.542;11.974;2022-11-20T14:25:37;2.40;99.90
16958;DHT22;8595;52.542;11.974;2022-11-20T14:28:20;2.40;99.90
16958;DHT22;8595;52.542;11.974;2022-11-20T14:30:48;2.40;99.90
16958;DHT22;8595;52.542;11.974;2022-11-20T14:33:16;2.40;99.90
16958;DHT22;8595;52.542;11.974;2022-11-20T14:35:45;2.40;99.90
16958;DHT22;8595;52.542;11.974;2022-11-20T14:38:14;2.30;99.90
16958;DHT22;8595;52.542;11.974;2022-11-20T14:40:41;2.30;99.90
16958;DHT22;8595;52.542;11.974;2022-11-20T14:43:19;2.20;99.90
16958;DHT22;8595;52.542;11.974;2022-11-20T14:45:54;2.20;99.90
16958;DHT22;8595;52.542;11.974;2022-11-20T14:48:26;2.10;99.90
16958;DHT22;8595;52.542;11.974;2022-11-20T14:50:55;2.10;99.90
16958;DHT22;8595;52.542;11.974;2022-11-20T14:53:23;2.10;99.90
16958;DHT22;8595;52.542;11.974;2022-11-20T14:55:56;2.10;99.90
16958;DHT22;8595;52.542;11.974;2022-11-20T14:58:27;2.00;99.90
16958;DHT22;8595;52.542;11.974;2022-11-20T15:00:55;1.90;99.90
16958;DHT22;8595;52.542;11.974;2022-11-20T15:03:22;1.80;99.90
16958;DHT22;8595;52.542;11.974;2022-11-20T15:05:50;1.70;99.90
16958;DHT22;8595;52.542;11.974;2022-11-20T15:08:17;1.70;99.90
16958;DHT22;8595;52.542;11.974;2022-11-20T15:10:48;1.70;99.90
16958;DHT22;8595;52.542;11.974;2022-11-20T15:13:20;1.70;99.90
16958;DHT22;8595;52.542;11.974;2022-11-20T15:15:54;1.60;99.90
16958;DHT22;8595;52.542;11.974;2022-11-20T15:18:22;1.50;99.90
16958;DHT22;8595;52.542;11.974;2022-11-20T15:20:50;1.40;99.90
16958;DHT22;8595;52.542;11.974;2022-11-20T15:23:18;1.40;99.90
16958;DHT22;8595;52.542;11.974;2022-11-20T15:25:47;1.30;99.90
16958;DHT22;8595;52.542;11.974;2022-11-20T15:28:19;1.30;99.90
16958;DHT22;8595;52.542;11.974;2022-11-20T15:30:48;1.10;99.90
16958;DHT22;8595;52.542;11.974;2022-11-20T15:33:17;1.10;99.90
16958;DHT22;8595;52.542;11.974;2022-11-20T15:35:44;1.10;99.90
16958;DHT22;8595;52.542;11.974;2022-11-20T15:38:11;1.10;99.90
16958;DHT22;8595;52.542;11.974;2022-11-20T15:40:38;1.10;99.90
16958;DHT22;8595;52.542;11.974;2022-11-20T15:43:06;1.00;99.90
16958;DHT22;8595;52.542;11.974;2022-11-20T15:45:37;0.90;99.90
16958;DHT22;8595;52.542;11.974;2022-11-20T15:48:09;0.90;99.90
16958;DHT22;8595;52.542;11.974;2022-11-20T15:50:39;1.00;99.90
16958;DHT22;8595;52.542;11.974;2022-11-20T15:53:09;1.00;99.90
16958;DHT22;8595;52.542;11.974;2022-11-20T15:55:36;0.90;99.90
16958;DHT22;8595;52.542;11.974;2022-11-20T15:58:03;0.80;99.90
16958;DHT22;8595;52.542;11.974;2022-11-20T16:00:30;0.70;99.90
16958;DHT22;8595;52.542;11.974;2022-11-20T16:02:57;0.70;99.90